createdAt,value
2022-12-04T00:04:01.699Z,26.30
2022-12-04T00:06:30.164Z,20.30
2022-12-04T00:08:58.161Z,20.80
2022-12-04T00:11:29.736Z,21.10
2022-12-04T00:14:04.845Z,22.50
2022-12-04T00:16:35.545Z,19.50
2022-12-04T00:19:04.754Z,21.70
2022-12-04T00:21:33.165Z,24.90
2022-12-04T00:24:01.308Z,21.30
2022-12-04T00:26:31.382Z,21.70
2022-12-04T00:29:00.368Z,23.10
2022-12-04T00:31:30.759Z,26.80
2022-12-04T00:34:00.366Z,21.60
2022-12-04T00:36:30.075Z,21.90
2022-12-04T00:41:29.723Z,21.20
2022-12-04T00:43:58.663Z,23.90
2022-12-04T00:46:27.442Z,21.50
2022-12-04T00:48:55.868Z,21.10
2022-12-04T00:51:25.576Z,19.90
2022-12-04T00:53:54.050Z,19.40
2022-12-04T00:56:25.809Z,20.70
2022-12-04T00:58:57.271Z,17.90
2022-12-04T01:01:26.602Z,21.30
2022-12-04T01:03:55.867Z,19.40
2022-12-04T01:08:58.210Z,17.30
2022-12-04T01:11:28.237Z,20.30
2022-12-04T01:13:57.747Z,20.40
2022-12-04T01:18:56.900Z,22.10
2022-12-04T01:21:25.107Z,19.50
2022-12-04T01:23:53.645Z,24.70
2022-12-04T01:26:22.335Z,21.90
2022-12-04T01:28:50.399Z,21.90
2022-12-04T01:31:21.275Z,18.80
2022-12-04T01:33:50.227Z,18.50
2022-12-04T01:36:21.716Z,22.30
2022-12-04T01:38:50.264Z,22.80
2022-12-04T01:41:22.842Z,21.70
2022-12-04T01:44:20.411Z,21.10
2022-12-04T01:46:59.778Z,21.80
2022-12-04T01:49:38.499Z,17.30
2022-12-04T01:52:20.573Z,17.60
2022-12-04T01:54:56.106Z,19.60
2022-12-04T01:57:28.195Z,21.00
2022-12-04T02:00:00.398Z,17.40
2022-12-04T02:02:38.058Z,20.50
2022-12-04T02:05:10.515Z,19.80
2022-12-04T02:07:40.572Z,23.10
2022-12-04T02:10:10.104Z,19.70
2022-12-04T02:12:51.013Z,20.00
2022-12-04T02:15:24.211Z,17.80
2022-12-04T02:18:01.296Z,14.50
2022-12-04T02:20:35.300Z,18.20
2022-12-04T02:23:06.340Z,14.70
2022-12-04T02:25:59.589Z,20.00
2022-12-04T02:28:43.617Z,15.60
2022-12-04T02:31:17.219Z,20.80
2022-12-04T02:34:01.607Z,19.40
2022-12-04T02:36:34.388Z,20.20
2022-12-04T02:39:20.689Z,17.60
2022-12-04T02:41:57.770Z,20.40
2022-12-04T02:44:38.530Z,17.90
2022-12-04T02:47:12.245Z,19.00
2022-12-04T02:50:00.248Z,18.60
2022-12-04T02:52:39.004Z,18.60
2022-12-04T02:55:20.285Z,19.70
2022-12-04T02:57:58.410Z,16.90
2022-12-04T03:00:27.999Z,15.90
2022-12-04T03:02:56.157Z,15.60
2022-12-04T03:05:56.745Z,19.70
2022-12-04T03:08:39.533Z,17.70
2022-12-04T03:11:08.825Z,17.10
2022-12-04T03:16:31.153Z,20.00
2022-12-04T03:19:04.685Z,18.20
2022-12-04T03:21:38.591Z,19.80
2022-12-04T03:24:07.163Z,20.80
2022-12-04T03:26:41.648Z,21.30
2022-12-04T03:29:12.429Z,20.00
2022-12-04T03:31:46.751Z,18.50
2022-12-04T03:34:26.189Z,19.30
2022-12-04T03:36:59.489Z,11.90
2022-12-04T03:39:42.101Z,14.90
2022-12-04T03:42:16.314Z,14.50
2022-12-04T03:45:09.066Z,16.90
2022-12-04T03:48:09.101Z,17.40
2022-12-04T03:50:39.108Z,13.00
2022-12-04T03:53:22.124Z,15.00
2022-12-04T03:56:20.097Z,13.20
2022-12-04T03:59:00.152Z,11.50
2022-12-04T04:01:34.203Z,13.20
2022-12-04T04:04:07.740Z,11.70
2022-12-04T04:06:44.543Z,10.90
2022-12-04T04:09:22.987Z,8.20
2022-12-04T04:12:18.675Z,9.30
2022-12-04T04:15:20.306Z,9.10
2022-12-04T04:18:09.501Z,10.50
2022-12-04T04:23:53.191Z,10.00
2022-12-04T04:26:23.807Z,9.80
2022-12-04T04:28:51.861Z,10.10
2022-12-04T04:31:48.913Z,8.60
2022-12-04T04:34:31.042Z,8.00
2022-12-04T04:37:21.728Z,14.60
2022-12-04T04:40:05.891Z,12.50
2022-12-04T04:42:47.459Z,14.50
2022-12-04T04:45:25.490Z,14.10
2022-12-04T04:48:02.498Z,12.00
2022-12-04T04:50:33.290Z,13.60
2022-12-04T04:53:06.282Z,17.90
2022-12-04T04:55:36.286Z,16.30
2022-12-04T04:58:16.561Z,16.60
2022-12-04T05:01:07.637Z,16.60
2022-12-04T05:03:36.240Z,11.80
2022-12-04T05:06:04.860Z,13.20
2022-12-04T05:08:33.853Z,11.20
2022-12-04T05:11:02.880Z,13.10
2022-12-04T05:13:32.004Z,11.40
2022-12-04T05:16:05.489Z,10.90
2022-12-04T05:18:34.974Z,12.00
2022-12-04T05:21:18.748Z,11.40
2022-12-04T05:23:46.854Z,10.30
2022-12-04T05:26:14.894Z,9.30
2022-12-04T05:28:42.964Z,9.20
2022-12-04T05:31:11.049Z,10.50
2022-12-04T05:33:39.418Z,8.60
2022-12-04T05:36:10.065Z,11.10
2022-12-04T05:38:38.324Z,9.50
2022-12-04T05:41:07.526Z,11.50
2022-12-04T05:46:05.934Z,10.10
2022-12-04T05:48:35.737Z,10.00
2022-12-04T05:51:08.399Z,10.20
2022-12-04T05:53:37.380Z,10.30
2022-12-04T05:56:07.783Z,10.30
2022-12-04T05:58:37.849Z,11.30
2022-12-04T06:01:15.138Z,10.00
2022-12-04T06:03:43.899Z,12.20
2022-12-04T06:06:21.780Z,11.20
2022-12-04T06:08:53.080Z,10.20
2022-12-04T06:11:39.508Z,12.30
2022-12-04T06:14:12.875Z,12.70
2022-12-04T06:16:44.230Z,8.30
2022-12-04T06:19:17.518Z,12.80
2022-12-04T06:21:48.323Z,25.90
2022-12-04T06:24:19.811Z,28.80
2022-12-04T06:27:18.760Z,27.60
2022-12-04T06:29:37.251Z,25.40
2022-12-04T06:32:05.487Z,18.80
2022-12-04T06:34:33.936Z,14.50
2022-12-04T06:37:02.287Z,12.60
2022-12-04T06:39:30.398Z,12.20
2022-12-04T06:41:58.566Z,12.60
2022-12-04T06:44:26.846Z,11.80
2022-12-04T06:46:55.081Z,12.80
2022-12-04T06:49:23.259Z,11.30
2022-12-04T06:51:51.561Z,10.20
2022-12-04T06:54:19.915Z,10.90
2022-12-04T06:56:49.731Z,11.90
2022-12-04T06:59:18.052Z,11.60
2022-12-04T07:01:46.392Z,10.50
2022-12-04T07:04:14.424Z,10.10
2022-12-04T07:06:42.594Z,9.10
2022-12-04T07:09:14.192Z,9.50
2022-12-04T07:11:44.220Z,11.30
2022-12-04T07:14:13.335Z,11.80
2022-12-04T07:16:42.683Z,10.70
2022-12-04T07:19:13.708Z,11.00
2022-12-04T07:21:43.141Z,17.30
2022-12-04T07:24:17.297Z,12.40
2022-12-04T07:26:46.295Z,11.90
2022-12-04T07:29:14.669Z,10.70
2022-12-04T07:31:44.519Z,10.80
2022-12-04T07:34:12.962Z,10.00
2022-12-04T07:36:41.148Z,9.40
2022-12-04T07:39:09.929Z,12.70
2022-12-04T07:41:38.045Z,11.90
2022-12-04T07:44:07.501Z,10.30
2022-12-04T07:46:35.888Z,12.70
2022-12-04T07:49:04.466Z,10.40
2022-12-04T07:51:32.673Z,13.40
2022-12-04T07:54:03.667Z,13.50
2022-12-04T07:56:33.714Z,13.60
2022-12-04T07:59:02.607Z,11.90
2022-12-04T08:01:31.536Z,12.00
2022-12-04T08:04:01.146Z,12.70
2022-12-04T08:06:30.492Z,11.80
2022-12-04T08:08:58.695Z,10.60
2022-12-04T08:11:28.789Z,11.30
2022-12-04T08:13:59.517Z,13.20
2022-12-04T08:16:29.134Z,10.80
2022-12-04T08:18:58.343Z,11.90
2022-12-04T08:24:00.777Z,9.80
2022-12-04T08:26:30.885Z,9.80
2022-12-04T08:29:01.317Z,10.00
2022-12-04T08:31:31.611Z,12.70
2022-12-04T08:34:02.943Z,14.20
2022-12-04T08:36:31.378Z,10.50
2022-12-04T08:38:59.803Z,14.40
2022-12-04T08:41:28.178Z,13.00
2022-12-04T08:43:56.608Z,12.20
2022-12-04T08:46:27.239Z,12.50
2022-12-04T08:48:56.256Z,12.10
2022-12-04T08:51:27.538Z,11.50
2022-12-04T08:53:57.350Z,11.80
2022-12-04T08:56:26.588Z,12.00
2022-12-04T08:58:56.453Z,10.90
2022-12-04T09:01:25.889Z,10.00
2022-12-04T09:03:54.950Z,10.20
2022-12-04T09:06:24.269Z,13.30
2022-12-04T09:11:24.544Z,10.40
2022-12-04T09:13:53.704Z,10.40
2022-12-04T09:18:51.812Z,9.70
2022-12-04T09:21:22.209Z,11.60
2022-12-04T09:23:51.043Z,12.40
2022-12-04T09:26:25.828Z,11.90
2022-12-04T09:28:55.594Z,11.50
2022-12-04T09:31:25.093Z,11.50
2022-12-04T09:33:54.245Z,10.30
2022-12-04T09:38:53.263Z,9.60
2022-12-04T09:41:48.107Z,10.50
2022-12-04T09:44:19.642Z,9.90
2022-12-04T09:47:12.362Z,11.20
2022-12-04T09:49:48.014Z,11.60
2022-12-04T09:52:31.275Z,14.60
2022-12-04T09:55:01.150Z,12.60
2022-12-04T09:57:38.927Z,12.90
2022-12-04T10:00:16.705Z,12.80
2022-12-04T10:02:52.189Z,14.90
2022-12-04T10:05:32.512Z,11.60
2022-12-04T10:08:08.275Z,14.40
2022-12-04T10:11:00.749Z,10.20
2022-12-04T10:13:28.922Z,11.10
2022-12-04T10:16:42.073Z,13.00
2022-12-04T10:19:36.850Z,16.80
2022-12-04T10:22:16.596Z,14.80
2022-12-04T10:24:44.626Z,11.40
2022-12-04T10:27:26.601Z,13.30
2022-12-04T10:30:04.481Z,12.20
2022-12-04T10:32:34.166Z,13.60
2022-12-04T10:35:29.589Z,14.40
2022-12-04T10:38:04.992Z,14.30
2022-12-04T10:41:14.846Z,14.00
2022-12-04T10:43:46.346Z,16.70
2022-12-04T10:46:29.430Z,13.80
2022-12-04T10:49:13.359Z,13.10
2022-12-04T10:51:44.046Z,12.50
2022-12-04T10:54:24.199Z,13.10
2022-12-04T10:57:00.054Z,13.90
2022-12-04T10:59:29.557Z,12.80
2022-12-04T11:04:52.817Z,14.00
2022-12-04T11:07:28.082Z,11.50
2022-12-04T11:10:18.535Z,11.50
2022-12-04T11:13:00.846Z,10.80
2022-12-04T11:15:29.770Z,11.40
2022-12-04T11:18:09.412Z,12.20
2022-12-04T11:20:37.612Z,12.80
2022-12-04T11:23:05.968Z,10.00
2022-12-04T11:25:47.175Z,10.50
2022-12-04T11:28:40.744Z,11.40
2022-12-04T11:31:11.029Z,12.20
2022-12-04T11:33:45.152Z,11.70
2022-12-04T11:36:25.384Z,10.70
2022-12-04T11:39:04.468Z,11.50
2022-12-04T11:41:33.151Z,11.80
2022-12-04T11:44:01.462Z,11.40
2022-12-04T11:46:34.328Z,10.90
2022-12-04T11:49:03.927Z,11.40
2022-12-04T11:52:06.170Z,11.60
2022-12-04T11:55:00.609Z,11.30
2022-12-04T11:57:31.907Z,12.00
2022-12-04T12:00:16.509Z,13.40
2022-12-04T12:03:10.963Z,11.70
2022-12-04T12:06:17.521Z,11.60
2022-12-04T12:09:19.667Z,8.20
2022-12-04T12:11:57.264Z,11.00
2022-12-04T12:14:54.264Z,10.50
2022-12-04T12:18:10.650Z,11.80
2022-12-04T12:20:53.601Z,12.10
2022-12-04T12:23:36.999Z,11.30
2022-12-04T12:26:14.681Z,12.10
2022-12-04T12:29:04.484Z,10.20
2022-12-04T12:31:41.527Z,12.50
2022-12-04T12:34:23.155Z,11.50
2022-12-04T12:36:59.278Z,11.40
2022-12-04T12:40:06.257Z,12.10
2022-12-04T12:42:49.952Z,15.00
2022-12-04T12:45:39.135Z,12.30
2022-12-04T12:48:45.885Z,12.50
2022-12-04T12:51:42.219Z,12.00
2022-12-04T12:54:28.824Z,11.20
2022-12-04T12:57:09.389Z,9.90
2022-12-04T12:59:42.584Z,11.00
2022-12-04T13:02:26.180Z,9.80
2022-12-04T13:04:59.310Z,11.90
2022-12-04T13:07:54.362Z,11.70
2022-12-04T13:11:12.690Z,11.20
2022-12-04T13:13:45.921Z,10.80
2022-12-04T13:16:26.287Z,10.80
2022-12-04T13:19:19.271Z,11.90
2022-12-04T13:21:47.241Z,10.20
2022-12-04T13:24:37.517Z,13.30
2022-12-04T13:27:42.984Z,11.40
2022-12-04T13:30:21.705Z,10.40
2022-12-04T13:32:49.677Z,12.00
2022-12-04T13:35:46.264Z,12.70
2022-12-04T13:38:20.086Z,12.20
2022-12-04T13:41:11.037Z,11.00
2022-12-04T13:43:42.391Z,10.70
2022-12-04T13:46:34.250Z,11.60
2022-12-04T13:49:30.169Z,12.10
2022-12-04T13:52:00.222Z,11.60
2022-12-04T13:54:31.338Z,11.40
2022-12-04T13:57:14.858Z,11.10
2022-12-04T13:59:44.593Z,13.60
2022-12-04T14:02:38.422Z,13.50
2022-12-04T14:05:11.559Z,13.10
2022-12-04T14:08:19.494Z,11.80
2022-12-04T14:11:05.934Z,15.10
2022-12-04T14:13:47.325Z,11.90
2022-12-04T14:16:30.898Z,12.50
2022-12-04T14:19:02.029Z,10.80
2022-12-04T14:22:00.239Z,12.80
2022-12-04T14:24:39.296Z,10.90
2022-12-04T14:27:35.022Z,11.90
2022-12-04T14:30:04.417Z,12.50
2022-12-04T14:32:35.667Z,11.10
2022-12-04T14:35:04.245Z,13.60
2022-12-04T14:37:38.285Z,10.60
2022-12-04T14:40:16.411Z,9.90
2022-12-04T14:42:49.272Z,11.30
2022-12-04T14:45:38.945Z,14.30
2022-12-04T14:48:09.862Z,12.10
2022-12-04T14:50:46.873Z,12.00
2022-12-04T14:53:35.313Z,11.50
2022-12-04T14:56:40.864Z,13.50
2022-12-04T14:59:21.612Z,11.80
2022-12-04T15:01:52.570Z,12.70
2022-12-04T15:04:29.492Z,12.00
2022-12-04T15:07:00.580Z,9.80
2022-12-04T15:09:48.346Z,11.70
2022-12-04T15:12:35.140Z,11.40
2022-12-04T15:15:13.020Z,14.00
2022-12-04T15:17:41.340Z,12.10
2022-12-04T15:20:14.591Z,13.30
2022-12-04T15:22:43.688Z,12.90
2022-12-04T15:25:24.459Z,13.60
2022-12-04T15:27:59.176Z,14.20
2022-12-04T15:30:30.927Z,14.60
2022-12-04T15:32:59.425Z,12.70
2022-12-04T15:35:33.027Z,12.20
2022-12-04T15:38:01.782Z,12.80
2022-12-04T15:40:30.911Z,12.10
2022-12-04T15:43:17.118Z,14.80
2022-12-04T15:45:45.392Z,12.60
2022-12-04T15:48:23.902Z,12.20
2022-12-04T15:51:04.573Z,10.10
2022-12-04T15:53:37.357Z,12.70
2022-12-04T15:56:16.380Z,11.00
2022-12-04T15:59:02.782Z,11.90
2022-12-04T16:01:41.182Z,12.00
2022-12-04T16:04:22.448Z,9.20
2022-12-04T16:06:54.507Z,11.50
2022-12-04T16:09:26.067Z,13.60
2022-12-04T16:12:03.375Z,12.60
2022-12-04T16:14:31.524Z,12.00
2022-12-04T16:17:05.793Z,12.30
2022-12-04T16:19:41.405Z,11.50
2022-12-04T16:22:20.717Z,13.60
2022-12-04T16:24:49.209Z,14.50
2022-12-04T16:27:20.353Z,11.30
2022-12-04T16:29:50.172Z,13.30
2022-12-04T16:32:21.084Z,13.70
2022-12-04T16:34:49.794Z,12.70
2022-12-04T16:37:20.965Z,9.80
2022-12-04T16:39:49.349Z,10.80
2022-12-04T16:42:17.384Z,10.70
2022-12-04T16:44:46.155Z,9.20
2022-12-04T16:47:15.200Z,9.90
2022-12-04T16:49:45.399Z,12.60
2022-12-04T16:52:14.789Z,8.10
2022-12-04T16:57:11.244Z,8.00
2022-12-04T16:59:39.520Z,8.80
2022-12-04T17:02:26.228Z,7.10
2022-12-04T17:04:57.438Z,9.00
2022-12-04T17:07:26.058Z,8.20
2022-12-04T17:09:54.183Z,10.60
2022-12-04T17:12:22.366Z,11.20
2022-12-04T17:14:50.683Z,10.40
2022-12-04T17:17:18.702Z,9.30
2022-12-04T17:19:47.034Z,10.10
2022-12-04T17:22:16.445Z,11.00
2022-12-04T17:24:50.247Z,8.30
2022-12-04T17:27:23.756Z,7.60
2022-12-04T17:29:51.960Z,7.70
2022-12-04T17:32:20.093Z,7.30
2022-12-04T17:34:48.373Z,9.60
2022-12-04T17:37:16.547Z,12.70
2022-12-04T17:39:44.724Z,10.00
2022-12-04T17:42:13.151Z,10.40
2022-12-04T17:44:41.128Z,8.40
2022-12-04T17:47:09.658Z,10.30
2022-12-04T17:49:38.111Z,8.40
2022-12-04T17:52:06.355Z,8.70
2022-12-04T17:54:35.066Z,10.30
2022-12-04T17:57:03.473Z,8.60
2022-12-04T17:59:31.714Z,7.90
2022-12-04T18:01:59.928Z,9.00
2022-12-04T18:04:28.305Z,8.20
2022-12-04T18:06:56.648Z,7.60
2022-12-04T18:09:24.760Z,7.40
2022-12-04T18:11:52.840Z,8.70
2022-12-04T18:14:23.946Z,6.50
2022-12-04T18:16:54.263Z,7.30
2022-12-04T18:19:24.824Z,7.60
2022-12-04T18:21:54.432Z,7.10
2022-12-04T18:24:23.947Z,7.80
2022-12-04T18:26:52.730Z,18.50
2022-12-04T18:29:25.100Z,19.40
2022-12-04T18:31:53.424Z,21.40
2022-12-04T18:34:22.134Z,23.60
2022-12-04T18:36:50.858Z,20.40
2022-12-04T18:39:22.199Z,17.10
2022-12-04T18:41:51.538Z,14.40
2022-12-04T18:46:47.751Z,15.60
2022-12-04T18:49:15.926Z,18.60
2022-12-04T18:51:49.594Z,18.60
2022-12-04T18:54:21.278Z,14.70
2022-12-04T18:56:49.722Z,18.10
2022-12-04T18:59:26.437Z,16.00
2022-12-04T19:01:55.974Z,19.60
2022-12-04T19:04:25.858Z,18.30
2022-12-04T19:06:56.199Z,18.20
2022-12-04T19:09:54.395Z,18.10
2022-12-04T19:12:16.193Z,26.30
2022-12-04T19:14:44.362Z,53.10
2022-12-04T19:17:12.511Z,43.00
2022-12-04T19:19:41.021Z,100.80
2022-12-04T19:22:09.111Z,53.60
2022-12-04T19:24:37.396Z,47.20
2022-12-04T19:27:11.623Z,38.70
2022-12-04T19:29:40.792Z,25.60
2022-12-04T19:32:10.880Z,21.90
2022-12-04T19:34:39.007Z,88.30
2022-12-04T19:37:07.825Z,68.50
2022-12-04T19:39:37.700Z,52.30
2022-12-04T19:42:06.083Z,25.10
2022-12-04T19:44:50.086Z,25.30
2022-12-04T19:47:19.144Z,26.10
2022-12-04T19:49:47.274Z,23.30
2022-12-04T19:52:15.519Z,24.80
2022-12-04T19:54:43.716Z,26.00
2022-12-04T19:57:12.929Z,23.10
2022-12-04T19:59:57.484Z,25.60
2022-12-04T20:02:25.702Z,24.90
2022-12-04T20:04:54.639Z,23.00
2022-12-04T20:07:23.019Z,20.40
2022-12-04T20:09:52.607Z,29.40
2022-12-04T20:12:21.132Z,24.60
2022-12-04T20:14:49.207Z,26.80
2022-12-04T20:17:17.466Z,28.40
2022-12-04T20:19:45.720Z,27.10
2022-12-04T20:22:13.810Z,24.90
2022-12-04T20:24:43.210Z,25.90
2022-12-04T20:27:12.105Z,26.90
2022-12-04T20:29:40.188Z,24.90
2022-12-04T20:32:08.251Z,24.60
2022-12-04T20:34:43.071Z,28.10
2022-12-04T20:37:11.949Z,26.00
2022-12-04T20:39:40.490Z,34.30
2022-12-04T20:42:08.498Z,27.10
2022-12-04T20:44:47.393Z,26.00
2022-12-04T20:49:44.274Z,29.30
2022-12-04T20:52:12.390Z,31.70
2022-12-04T20:54:41.707Z,28.70
2022-12-04T20:57:10.639Z,26.30
2022-12-04T20:59:38.681Z,27.50
2022-12-04T21:02:07.205Z,25.20
2022-12-04T21:04:37.957Z,31.00
2022-12-04T21:07:06.721Z,35.70
2022-12-04T21:09:34.799Z,29.10
2022-12-04T21:12:24.279Z,23.70
2022-12-04T21:15:11.285Z,23.50
2022-12-04T21:17:40.486Z,25.30
2022-12-04T21:20:10.935Z,24.20
2022-12-04T21:22:39.597Z,22.80
2022-12-04T21:25:09.034Z,22.60
2022-12-04T21:27:37.276Z,22.00
2022-12-04T21:30:08.401Z,20.30
2022-12-04T21:32:36.590Z,18.80
2022-12-04T21:35:05.176Z,16.60
2022-12-04T21:37:34.578Z,17.30
2022-12-04T21:42:32.571Z,18.40
2022-12-04T21:45:02.395Z,14.30
2022-12-04T21:47:31.415Z,16.60
2022-12-04T21:49:59.820Z,16.40
2022-12-04T21:52:28.183Z,17.30
2022-12-04T21:54:56.928Z,12.00
2022-12-04T21:57:25.103Z,15.20
2022-12-04T21:59:53.171Z,13.60
2022-12-04T22:02:21.515Z,13.80
2022-12-04T22:04:49.925Z,13.60
2022-12-04T22:07:18.413Z,14.60
2022-12-04T22:09:48.258Z,13.30
2022-12-04T22:15:05.045Z,17.80
2022-12-04T22:17:33.016Z,19.20
2022-12-04T22:20:00.994Z,15.70
2022-12-04T22:22:29.331Z,20.40
2022-12-04T22:24:59.383Z,15.30
2022-12-04T22:27:29.401Z,16.30
2022-12-04T22:29:57.679Z,14.90
2022-12-04T22:32:25.767Z,16.00
2022-12-04T22:34:53.931Z,14.90
2022-12-04T22:37:21.912Z,13.20
2022-12-04T22:39:49.994Z,16.00
2022-12-04T22:42:17.960Z,15.50
2022-12-04T22:44:46.028Z,13.30
2022-12-04T22:47:14.180Z,18.60
2022-12-04T22:49:42.661Z,12.90
2022-12-04T22:52:10.776Z,13.20
2022-12-04T22:54:38.807Z,13.10
2022-12-04T22:57:07.287Z,11.80
2022-12-04T22:59:35.361Z,16.90
2022-12-04T23:02:03.943Z,12.40
2022-12-04T23:04:32.271Z,12.50
2022-12-04T23:07:00.406Z,11.80
2022-12-04T23:09:28.573Z,13.60
2022-12-04T23:11:57.154Z,15.60
2022-12-04T23:14:27.311Z,12.80
2022-12-04T23:16:56.463Z,15.20
2022-12-04T23:21:56.914Z,17.20
2022-12-04T23:24:26.184Z,17.70
2022-12-04T23:26:54.502Z,15.90
2022-12-04T23:29:51.573Z,15.90
2022-12-04T23:32:10.565Z,13.50
2022-12-04T23:34:38.984Z,13.70
2022-12-04T23:37:06.952Z,13.90
2022-12-04T23:39:35.128Z,18.10
2022-12-04T23:42:03.610Z,17.80
2022-12-04T23:44:31.687Z,15.10
2022-12-04T23:46:59.996Z,18.10
2022-12-04T23:49:28.242Z,17.40
2022-12-04T23:51:56.239Z,18.80
2022-12-04T23:54:24.290Z,18.60
2022-12-04T23:56:52.356Z,18.90
2022-12-04T23:59:22.170Z,23.10
